Time;durP1;ratioP1;P1;durP2;ratioP2;P2;SDS_P1;SDS_P2;PMS_P1;PMS_P2;Temp;Humidity;BMP_temperature;BMP_pressure;BME280_temperature;BME280_humidity;BME280_pressure;Samples;Min_cycle;Max_cycle;Signal;HPM_P1;HPM_P2
2023/10/18 00:05:10;;;;;;;4.85;4.05;;;;;;;2.71;100.00;98446.00;15264837;19;20094;-47
2023/10/18 00:10:36;;;;;;;5.00;4.50;;;;;;;2.64;100.00;98441.22;15266464;19;20023;-46
2023/10/18 00:16:16;;;;;;;7.35;4.32;;;;;;;2.55;100.00;98432.06;15271569;19;20354;-48
2023/10/18 00:21:42;;;;;;;4.65;3.97;;;;;;;2.41;100.00;98438.41;15271596;19;20031;-49
2023/10/18 00:27:09;;;;;;;6.25;3.97;;;;;;;2.28;100.00;98431.28;15283605;19;20769;-49
2023/10/18 00:32:36;;;;;;;4.40;3.63;;;;;;;2.18;100.00;98426.72;15282077;19;20025;-52
2023/10/18 00:38:03;;;;;;;4.93;3.80;;;;;;;2.03;100.00;98426.84;15282296;19;20020;-53
2023/10/18 00:43:28;;;;;;;8.27;4.03;;;;;;;1.92;100.00;98424.09;15281705;19;20368;-49
2023/10/18 00:48:55;;;;;;;5.53;4.40;;;;;;;1.83;100.00;98410.47;15277805;19;20855;-48
2023/10/18 00:54:21;;;;;;;6.07;5.47;;;;;;;1.77;100.00;98402.94;15266505;19;20085;-46
2023/10/18 00:59:45;;;;;;;7.57;6.00;;;;;;;1.76;100.00;98400.41;15280175;19;20035;-49
2023/10/18 01:05:13;;;;;;;8.10;7.30;;;;;;;1.79;100.00;98392.19;15274278;19;20363;-49
2023/10/18 01:10:38;;;;;;;10.15;8.10;;;;;;;1.86;100.00;98390.84;15278801;19;20074;-52
2023/10/18 01:16:14;;;;;;;8.98;8.02;;;;;;;2.00;100.00;98390.69;15280427;19;20828;-46
2023/10/18 01:21:45;;;;;;;9.20;8.30;;;;;;;2.10;100.00;98377.63;15276950;19;20118;-47
2023/10/18 01:27:13;;;;;;;8.25;7.45;;;;;;;2.17;100.00;98378.03;15268540;19;20014;-48
2023/10/18 01:32:38;;;;;;;8.70;7.80;;;;;;;2.25;100.00;98369.53;15277018;19;20623;-46
2023/10/18 01:38:06;;;;;;;13.70;8.30;;;;;;;2.32;100.00;98370.75;15275956;19;21906;-50
2023/10/18 01:43:43;;;;;;;8.45;7.50;;;;;;;2.39;100.00;98368.50;15277443;19;20031;-49
2023/10/18 01:49:07;;;;;;;9.07;7.70;;;;;;;2.39;100.00;98360.53;15273925;19;20014;-51
2023/10/18 01:54:32;;;;;;;8.40;7.20;;;;;;;2.38;100.00;98359.72;15270149;19;20578;-48
2023/10/18 02:00:00;;;;;;;8.68;7.15;;;;;;;2.38;100.00;98365.03;15269024;19;20021;-48
2023/10/18 02:05:27;;;;;;;7.30;6.43;;;;;;;2.28;100.00;98374.63;15270885;19;20022;-47
2023/10/18 02:10:53;;;;;;;7.03;6.00;;;;;;;2.12;100.00;98361.56;15275350;19;20027;-49
2023/10/18 02:16:28;;;;;;;10.63;6.28;;;;;;;1.95;100.00;98357.44;15273647;19;20035;-48
2023/10/18 02:21:54;;;;;;;6.85;6.15;;;;;;;1.82;100.00;98353.00;15271463;19;20018;-50
2023/10/18 02:27:23;;;;;;;6.38;5.75;;;;;;;1.74;100.00;98360.66;15267510;19;20090;-47
2023/10/18 02:32:51;;;;;;;7.65;6.88;;;;;;;1.56;100.00;98367.25;15267538;19;20460;-46
2023/10/18 02:38:18;;;;;;;8.25;6.35;;;;;;;1.44;100.00;98368.94;15271538;19;20418;-46
2023/10/18 02:43:45;;;;;;;7.95;7.10;;;;;;;1.39;100.00;98371.91;15273801;19;20089;-47
2023/10/18 02:49:12;;;;;;;9.07;6.70;;;;;;;1.34;100.00;98364.25;15270011;19;20029;-47
2023/10/18 02:54:39;;;;;;;6.93;6.30;;;;;;;1.25;100.00;98361.34;15267253;19;20417;-49
2023/10/18 03:00:10;;;;;;;7.13;5.70;;;;;;;1.20;100.00;98365.19;15265249;19;20030;-47
2023/10/18 03:05:42;;;;;;;6.28;5.55;;;;;;;1.17;100.00;98356.59;15264434;19;20103;-48
2023/10/18 03:11:10;;;;;;;9.77;7.57;;;;;;;1.12;100.00;98354.22;15270628;19;20039;-47
2023/10/18 03:16:41;;;;;;;7.68;6.68;;;;;;;1.11;100.00;98346.38;15268581;19;20344;-47
2023/10/18 03:22:09;;;;;;;8.02;7.18;;;;;;;1.04;100.00;98330.88;15270837;19;20101;-47
2023/10/18 03:27:41;;;;;;;9.13;8.23;;;;;;;1.05;100.00;98332.59;15270624;19;20086;-46
2023/10/18 03:33:07;;;;;;;11.10;9.30;;;;;;;1.05;100.00;98324.63;15263596;19;20046;-49
2023/10/18 03:38:39;;;;;;;9.98;8.98;;;;;;;1.05;100.00;98329.06;15264688;19;20046;-45
2023/10/18 03:44:07;;;;;;;8.85;7.85;;;;;;;0.99;100.00;98322.38;15267205;19;20373;-47
2023/10/18 03:49:36;;;;;;;9.68;8.77;;;;;;;0.94;100.00;98315.69;15269005;19;20043;-46
2023/10/18 03:55:12;;;;;;;9.88;8.40;;;;;;;0.94;100.00;98318.34;15281348;19;20384;-46
2023/10/18 04:00:46;;;;;;;8.65;7.85;;;;;;;0.87;100.00;98307.28;15280532;19;20031;-46
2023/10/18 04:06:21;;;;;;;8.15;7.35;;;;;;;0.77;100.00;98309.69;15265905;19;20026;-46
2023/10/18 04:11:49;;;;;;;8.70;7.72;;;;;;;0.69;100.00;98299.63;15279730;19;20019;-46
2023/10/18 04:17:19;;;;;;;10.45;8.48;;;;;;;0.64;100.00;98290.28;15280919;19;20010;-50
2023/10/18 04:22:44;;;;;;;8.90;7.97;;;;;;;0.60;100.00;98285.16;15280203;19;20022;-45
2023/10/18 04:28:14;;;;;;;8.40;7.60;;;;;;;0.52;100.00;98282.19;15281218;19;20021;-47
2023/10/18 04:33:41;;;;;;;10.45;9.35;;;;;;;0.45;100.00;98280.88;15273048;19;20475;-47
2023/10/18 04:39:08;;;;;;;11.07;9.20;;;;;;;0.46;100.00;98274.63;15264423;19;20026;-46
2023/10/18 04:44:37;;;;;;;11.30;9.23;;;;;;;0.41;100.00;98261.69;15278093;19;20013;-47
2023/10/18 04:50:11;;;;;;;9.35;8.10;;;;;;;0.36;100.00;98252.31;15279632;19;20315;-48
2023/10/18 04:55:46;;;;;;;9.48;7.30;;;;;;;0.28;100.00;98247.53;15282023;19;20014;-50
2023/10/18 05:01:13;;;;;;;9.13;8.20;;;;;;;0.20;100.00;98247.19;15276702;19;20014;-48
2023/10/18 05:06:42;;;;;;;9.50;8.50;;;;;;;0.17;100.00;98250.03;15275056;19;20039;-48
2023/10/18 05:12:16;;;;;;;13.13;9.40;;;;;;;0.13;100.00;98255.53;15270208;19;20082;-83
2023/10/18 05:17:45;;;;;;;10.85;9.00;;;;;;;0.06;100.00;98270.13;15301835;19;20046;-85
2023/10/18 05:23:17;;;;;;;10.65;9.52;;;;;;;0.00;100.00;98267.88;15304409;19;20010;-84
2023/10/18 05:28:49;;;;;;;11.27;9.40;;;;;;;-0.06;100.00;98270.91;15298046;19;20511;-82
2023/10/18 05:34:26;;;;;;;10.48;9.27;;;;;;;-0.10;100.00;98264.09;15300526;19;20010;-82
2023/10/18 05:40:42;;;;;;;10.80;8.65;;;;;;;-0.15;100.00;98261.75;15297007;19;20078;-85
2023/10/18 05:45:40;;;;;;;10.48;9.35;;;;;;;-0.20;100.00;98255.91;15285707;19;20474;-85
2023/10/18 05:56:56;;;;;;;11.60;9.98;;;;;;;-0.19;100.00;98263.75;15289396;19;20732;-82
2023/10/18 06:42:47;;;;;;;9.98;8.80;;;;;;;0.20;100.00;98245.38;15292605;19;20324;-83
2023/10/18 06:48:14;;;;;;;10.35;9.23;;;;;;;0.30;100.00;98229.72;15293445;19;20036;-86
2023/10/18 06:53:38;;;;;;;13.80;9.55;;;;;;;0.42;100.00;98220.09;15302559;19;20351;-85
2023/10/18 06:59:13;;;;;;;11.43;10.18;;;;;;;0.54;100.00;98215.81;15296430;19;20018;-83
2023/10/18 07:04:51;;;;;;;11.00;9.82;;;;;;;0.68;100.00;98201.59;15296671;19;20623;-86
2023/10/18 07:10:52;;;;;;;12.52;10.20;;;;;;;0.85;100.00;98203.97;15296344;19;20021;-84
2023/10/18 07:16:35;;;;;;;9.98;8.85;;;;;;;1.03;100.00;98201.84;15297821;19;20010;-85
2023/10/18 07:22:06;;;;;;;12.68;9.70;;;;;;;1.21;100.00;98199.72;15294733;19;20029;-87
2023/10/18 07:27:32;;;;;;;10.38;9.27;;;;;;;1.33;100.00;98200.63;15284930;19;20011;-85
2023/10/18 07:33:00;;;;;;;12.00;8.02;;;;;;;1.41;100.00;98189.47;15288686;19;20432;-83
2023/10/18 07:38:29;;;;;;;9.45;7.90;;;;;;;1.47;100.00;98193.50;15293550;19;20413;-82
2023/10/18 07:43:55;;;;;;;8.93;7.90;;;;;;;1.56;100.00;98200.81;15298639;19;20067;-80
2023/10/18 07:49:24;;;;;;;9.75;8.70;;;;;;;1.66;100.00;98198.34;15279680;19;20082;-82
2023/10/18 07:54:49;;;;;;;9.02;7.82;;;;;;;1.77;100.00;98195.75;15280978;19;20014;-83
2023/10/18 08:00:26;;;;;;;8.80;7.80;;;;;;;1.85;100.00;98187.25;15286665;19;20003;-84
2023/10/18 08:05:55;;;;;;;9.52;8.32;;;;;;;1.99;100.00;98183.56;15287226;19;20094;-84
2023/10/18 08:11:23;;;;;;;9.70;8.65;;;;;;;2.14;100.00;98166.50;15283650;19;20025;-84
2023/10/18 08:16:55;;;;;;;9.20;7.72;;;;;;;2.36;100.00;98150.72;15286230;19;20011;-85
2023/10/18 08:22:27;;;;;;;9.18;8.20;;;;;;;2.60;100.00;98148.88;15288252;19;20482;-85
2023/10/18 08:27:54;;;;;;;9.55;8.32;;;;;;;2.88;100.00;98140.59;15285932;19;20010;-86
2023/10/18 08:33:19;;;;;;;10.70;9.60;;;;;;;3.19;100.00;98146.16;15292161;19;20031;-86
2023/10/18 08:38:48;;;;;;;10.00;8.20;;;;;;;3.55;100.00;98141.53;15303064;19;20570;-85
2023/10/18 08:44:24;;;;;;;11.15;7.80;;;;;;;3.89;100.00;98133.44;15304304;19;20025;-86
2023/10/18 08:49:53;;;;;;;9.48;7.20;;;;;;;4.16;100.00;98124.16;15304121;19;20034;-84
2023/10/18 08:55:43;;;;;;;7.22;6.63;;;;;;;4.42;100.00;98126.41;15291085;19;20123;-85
2023/10/18 09:01:11;;;;;;;7.45;6.60;;;;;;;4.69;100.00;98130.38;15295067;19;20029;-88
2023/10/18 09:06:40;;;;;;;6.65;5.95;;;;;;;4.97;100.00;98120.03;15294542;19;20098;-84
2023/10/18 09:12:17;;;;;;;7.22;5.70;;;;;;;5.24;100.00;98112.25;15299082;19;20010;-84
2023/10/18 09:17:41;;;;;;;7.68;6.07;;;;;;;5.48;100.00;98094.19;15300373;19;20029;-83
2023/10/18 09:23:16;;;;;;;6.93;5.03;;;;;;;5.81;100.00;98084.09;15353923;19;20358;-84
2023/10/18 09:28:44;;;;;;;4.72;3.92;;;;;;;6.24;100.00;98079.38;15320614;19;20031;-84
2023/10/18 09:34:10;;;;;;;5.70;3.67;;;;;;;6.65;100.00;98074.63;15302654;19;20488;-84
2023/10/18 09:39:43;;;;;;;4.50;3.20;;;;;;;6.99;100.00;98068.75;15313091;19;20017;-84
2023/10/18 09:45:23;;;;;;;4.10;2.92;;;;;;;7.37;100.00;98079.44;15314414;19;20025;-84
2023/10/18 09:56:41;;;;;;;5.10;3.97;;;;;;;7.92;100.00;98064.25;15352469;19;20013;-86
2023/10/18 10:02:15;;;;;;;3.28;2.97;;;;;;;8.10;100.00;98040.09;15345292;19;20014;-86
2023/10/18 10:07:50;;;;;;;4.78;2.97;;;;;;;8.33;100.00;98035.94;15274730;19;20380;-53
2023/10/18 10:13:25;;;;;;;5.10;3.03;;;;;;;8.62;100.00;98024.09;15273910;19;20011;-54
2023/10/18 10:18:52;;;;;;;3.85;3.20;;;;;;;8.88;100.00;98027.72;15274943;19;20479;-53
2023/10/18 10:24:35;;;;;;;6.25;2.97;;;;;;;9.15;100.00;98018.63;15273938;19;20406;-56
2023/10/18 10:30:05;;;;;;;4.00;2.80;;;;;;;9.39;100.00;98006.25;15270069;19;20011;-55
2023/10/18 10:35:35;;;;;;;4.18;3.78;;;;;;;9.51;100.00;98006.81;15268024;19;20021;-53
2023/10/18 10:41:19;;;;;;;5.18;3.60;;;;;;;9.58;100.00;98001.63;15274878;19;20053;-54
2023/10/18 10:46:50;;;;;;;3.90;3.50;;;;;;;9.64;100.00;97982.94;15272956;19;20038;-50
2023/10/18 10:52:18;;;;;;;5.83;3.87;;;;;;;9.74;100.00;97974.72;15273757;19;20018;-51
2023/10/18 10:57:46;;;;;;;5.13;3.20;;;;;;;9.92;100.00;97955.72;15274483;19;20070;-54
2023/10/18 11:03:52;;;;;;;3.15;2.78;;;;;;;10.22;100.00;97939.03;15265740;19;20010;-53
2023/10/18 11:09:18;;;;;;;3.67;1.40;;;;;;;10.61;100.00;97932.91;15267259;19;20242;-54
2023/10/18 11:14:50;;;;;;;2.05;1.48;;;;;;;10.91;100.00;97911.56;15269631;19;20022;-54
2023/10/18 11:20:29;;;;;;;2.03;1.33;;;;;;;11.22;100.00;97906.19;15270056;19;20011;-51
2023/10/18 11:25:56;;;;;;;1.95;1.25;;;;;;;11.46;100.00;97880.06;14762765;19;10001700;-52
2023/10/18 11:31:21;;;;;;;2.05;1.27;;;;;;;11.72;100.00;97871.56;15270639;19;20020;-54
2023/10/18 11:36:52;;;;;;;1.70;1.30;;;;;;;11.95;100.00;97867.97;15258549;19;20027;-50
2023/10/18 11:42:17;;;;;;;1.60;1.25;;;;;;;12.16;100.00;97851.09;15264804;19;20025;-51
2023/10/18 11:47:42;;;;;;;1.90;1.13;;;;;;;12.39;100.00;97833.13;15267621;19;20487;-55
2023/10/18 12:07:17;;;;;;;1.90;1.20;;;;;;;12.95;100.00;97794.69;15320459;19;20077;-47
2023/10/18 12:12:43;;;;;;;1.83;1.20;;;;;;;12.99;100.00;97801.41;15332392;19;20014;-50
2023/10/18 12:18:08;;;;;;;2.47;1.25;;;;;;;13.14;100.00;97793.22;15336618;19;20002;-49
2023/10/18 12:23:40;;;;;;;2.55;1.23;;;;;;;13.21;100.00;97793.28;15336092;19;20019;-47
2023/10/18 12:29:05;;;;;;;3.60;1.40;;;;;;;13.28;100.00;97782.53;15336934;19;20021;-50
2023/10/18 12:34:32;;;;;;;2.63;1.40;;;;;;;13.31;100.00;97780.25;15333923;19;20014;-47
2023/10/18 12:40:14;;;;;;;2.08;1.40;;;;;;;13.40;100.00;97768.31;15335587;19;20354;-49
2023/10/18 12:45:45;;;;;;;3.17;1.40;;;;;;;13.50;100.00;97764.44;15327106;19;20011;-46
2023/10/18 12:51:12;;;;;;;4.10;1.63;;;;;;;13.54;100.00;97761.13;15336995;19;20699;-52
2023/10/18 12:56:46;;;;;;;2.70;1.80;;;;;;;13.69;100.00;97747.50;15328392;19;20022;-50
2023/10/18 13:02:26;;;;;;;2.60;1.73;;;;;;;13.84;100.00;97744.66;15336459;19;20021;-50
2023/10/18 13:07:52;;;;;;;2.80;1.60;;;;;;;14.13;100.00;97731.91;15277277;19;20018;-48
2023/10/18 13:13:20;;;;;;;2.28;1.52;;;;;;;14.35;100.00;97718.25;15276773;19;20751;-54
2023/10/18 13:18:39;;;;;;;2.10;1.45;;;;;;;14.53;100.00;97709.56;15270697;19;20078;-53
2023/10/18 13:24:16;;;;;;;4.40;1.30;;;;;;;14.87;100.00;97704.25;15275077;19;20019;-50
2023/10/18 13:29:48;;;;;;;1.75;1.55;;;;;;;15.00;100.00;97687.94;15273335;19;20007;-51
2023/10/18 13:35:17;;;;;;;3.72;1.58;;;;;;;15.06;100.00;97676.28;15268415;19;20018;-53
2023/10/18 13:40:43;;;;;;;3.00;1.50;;;;;;;15.04;100.00;97662.09;15273681;19;20018;-50
2023/10/18 13:46:18;;;;;;;2.25;1.60;;;;;;;14.98;100.00;97662.09;15266978;19;20019;-52
2023/10/18 13:51:42;;;;;;;2.15;1.60;;;;;;;14.87;100.00;97658.13;15270540;19;20352;-51
2023/10/18 13:57:07;;;;;;;2.05;1.50;;;;;;;14.64;100.00;97653.91;15264619;19;20042;-51
2023/10/18 14:02:43;;;;;;;2.53;1.92;;;;;;;14.48;100.00;97653.25;15267476;19;20030;-53
2023/10/18 14:08:11;;;;;;;2.75;2.03;;;;;;;14.59;100.00;97637.44;15274562;19;20360;-49
2023/10/18 14:13:36;;;;;;;3.42;2.40;;;;;;;14.73;100.00;97628.31;15277883;19;20082;-53
2023/10/18 14:19:05;;;;;;;5.90;2.60;;;;;;;15.06;100.00;97610.34;15264824;19;20034;-49
2023/10/18 14:24:32;;;;;;;3.50;2.38;;;;;;;15.24;100.00;97612.41;15272639;19;20473;-54
2023/10/18 14:30:00;;;;;;;4.32;2.60;;;;;;;15.36;100.00;97594.41;15277985;19;20029;-54
2023/10/18 14:35:28;;;;;;;5.60;2.55;;;;;;;15.35;100.00;97592.75;15273073;19;20089;-52
2023/10/18 14:40:53;;;;;;;4.35;2.40;;;;;;;15.00;100.00;97589.50;15274570;19;20639;-51
2023/10/18 14:46:30;;;;;;;4.63;2.60;;;;;;;14.55;100.00;97592.78;15269952;19;20360;-49
2023/10/18 14:51:57;;;;;;;3.33;2.60;;;;;;;14.06;100.00;97582.06;15273699;19;20088;-54
2023/10/18 14:57:23;;;;;;;5.05;2.67;;;;;;;13.71;100.00;97574.06;15264787;19;20014;-53
2023/10/18 15:02:52;;;;;;;4.13;2.60;;;;;;;13.30;100.00;97578.41;15270989;19;20029;-51
2023/10/18 15:08:39;;;;;;;3.22;2.40;;;;;;;12.89;100.00;97569.22;15262299;19;20014;-53
2023/10/18 15:14:11;;;;;;;3.47;2.53;;;;;;;12.46;100.00;97561.19;15268048;19;20122;-51
2023/10/18 15:19:36;;;;;;;3.72;2.90;;;;;;;12.20;100.00;97565.31;15272591;19;20014;-52
2023/10/18 15:25:04;;;;;;;3.72;2.80;;;;;;;11.90;100.00;97557.31;15267313;19;20018;-53
2023/10/18 15:30:31;;;;;;;4.07;2.70;;;;;;;11.66;100.00;97558.47;15265923;19;20014;-51
2023/10/18 15:35:57;;;;;;;3.67;2.65;;;;;;;11.41;100.00;97562.34;15258317;19;20102;-50
2023/10/18 15:41:24;;;;;;;3.85;2.78;;;;;;;11.21;100.00;97554.00;15262960;19;20018;-52
2023/10/18 15:46:53;;;;;;;4.00;2.78;;;;;;;10.93;100.00;97530.41;15266631;19;20025;-51
2023/10/18 15:52:18;;;;;;;5.25;3.00;;;;;;;10.68;100.00;97518.22;15271828;19;20041;-53
2023/10/18 15:57:46;;;;;;;4.78;3.05;;;;;;;10.46;100.00;97520.78;15264251;19;20534;-51
2023/10/18 16:03:13;;;;;;;4.05;3.58;;;;;;;10.30;100.00;97505.56;15276962;19;20029;-53
2023/10/18 16:08:38;;;;;;;6.70;3.30;;;;;;;10.12;100.00;97487.91;15318878;19;20002;-56
2023/10/18 16:14:07;;;;;;;5.13;3.60;;;;;;;9.98;100.00;97478.78;15262793;19;20105;-55
2023/10/18 16:19:35;;;;;;;5.03;3.42;;;;;;;9.86;100.00;97456.84;15264630;19;20014;-50
2023/10/18 16:24:59;;;;;;;5.70;3.25;;;;;;;9.76;100.00;97460.81;15258191;19;20094;-55
2023/10/18 16:30:28;;;;;;;4.75;3.00;;;;;;;9.64;100.00;97463.06;15258519;19;20363;-52
2023/10/18 16:35:53;;;;;;;4.80;3.20;;;;;;;9.54;100.00;97464.13;15263659;19;20021;-54
2023/10/18 16:41:20;;;;;;;4.82;3.03;;;;;;;9.49;100.00;97476.44;15274487;19;20014;-54
2023/10/18 16:46:50;;;;;;;5.00;2.83;;;;;;;9.43;100.00;97477.13;15275432;19;20086;-53
2023/10/18 16:52:15;;;;;;;5.15;3.25;;;;;;;9.33;100.00;97466.63;15279360;19;20011;-52
2023/10/18 16:57:39;;;;;;;4.10;2.78;;;;;;;9.22;100.00;97474.09;15271508;19;20015;-51
2023/10/18 17:03:07;;;;;;;3.55;2.90;;;;;;;9.09;100.00;97460.38;15277386;19;20102;-51
2023/10/18 17:08:33;;;;;;;5.68;3.33;;;;;;;8.98;100.00;97448.16;15277710;19;20034;-54
2023/10/18 17:13:58;;;;;;;4.35;3.30;;;;;;;8.91;100.00;97444.50;15253304;19;20016;-53
2023/10/18 17:19:26;;;;;;;4.63;3.60;;;;;;;8.81;100.00;97447.41;15273230;19;20018;-51
2023/10/18 17:24:52;;;;;;;4.30;3.50;;;;;;;8.74;100.00;97438.38;15272446;19;20017;-51
2023/10/18 17:30:20;;;;;;;4.55;3.35;;;;;;;8.69;100.00;97435.34;15276877;19;20025;-49
2023/10/18 17:35:49;;;;;;;4.55;3.30;;;;;;;8.63;100.00;97424.31;15268303;19;20639;-52
2023/10/18 17:41:14;;;;;;;4.25;3.50;;;;;;;8.56;100.00;97426.00;15278183;19;20047;-49
2023/10/18 17:46:40;;;;;;;4.47;3.60;;;;;;;8.49;100.00;97419.66;15268423;19;20031;-53
2023/10/18 17:52:08;;;;;;;4.15;3.50;;;;;;;8.43;100.00;97417.63;15269677;19;20353;-57
2023/10/18 17:57:34;;;;;;;4.00;3.53;;;;;;;8.39;100.00;97425.19;15271798;19;20014;-50
2023/10/18 18:02:58;;;;;;;5.78;3.50;;;;;;;8.30;100.00;97413.63;15274462;19;20032;-56
2023/10/18 18:08:27;;;;;;;5.90;4.30;;;;;;;8.20;100.00;97412.16;15275080;19;20046;-53
2023/10/18 18:13:51;;;;;;;5.35;3.70;;;;;;;8.04;100.00;97402.31;15272765;19;20026;-54
2023/10/18 18:19:18;;;;;;;5.47;3.47;;;;;;;7.90;100.00;97390.41;15273132;19;20504;-55
2023/10/18 18:24:47;;;;;;;5.80;4.20;;;;;;;7.69;100.00;97384.59;15266950;19;20022;-52
2023/10/18 18:30:14;;;;;;;5.60;4.45;;;;;;;7.52;100.00;97390.94;15270831;19;20478;-51
2023/10/18 18:35:39;;;;;;;5.72;4.13;;;;;;;7.40;100.00;97380.56;15188591;19;20022;-50
2023/10/18 18:41:10;;;;;;;5.18;3.95;;;;;;;7.33;100.00;97384.06;15273071;19;20114;-52
2023/10/18 18:46:38;;;;;;;4.70;4.03;;;;;;;7.25;100.00;97366.13;15264872;19;20038;-52
2023/10/18 18:52:03;;;;;;;5.70;3.92;;;;;;;7.17;100.00;97364.31;15267688;19;20547;-52
2023/10/18 18:57:31;;;;;;;6.78;3.85;;;;;;;7.08;100.00;97360.78;15257722;19;20070;-51
2023/10/18 19:02:58;;;;;;;7.20;4.20;;;;;;;7.02;100.00;97366.78;15267132;19;20031;-52
2023/10/18 19:08:30;;;;;;;4.53;4.00;;;;;;;6.99;100.00;97351.06;15275817;19;20006;-49
2023/10/18 19:14:01;;;;;;;7.63;4.20;;;;;;;6.98;100.00;97346.72;15280626;19;20713;-57
2023/10/18 19:19:26;;;;;;;5.80;3.97;;;;;;;6.97;100.00;97342.34;15260448;19;20014;-51
2023/10/18 19:24:51;;;;;;;5.53;4.00;;;;;;;6.97;100.00;97338.81;15264742;19;20019;-52
2023/10/18 19:30:20;;;;;;;6.20;3.92;;;;;;;6.95;100.00;97339.00;15263019;19;20081;-53
2023/10/18 19:35:48;;;;;;;5.20;4.38;;;;;;;6.98;100.00;97338.69;15255711;19;20041;-50
2023/10/18 19:41:14;;;;;;;6.20;4.70;;;;;;;7.00;100.00;97338.50;15266840;19;20015;-49
2023/10/18 19:46:43;;;;;;;6.15;4.90;;;;;;;7.04;100.00;97335.31;15258707;19;20021;-51
2023/10/18 19:52:08;;;;;;;6.18;4.78;;;;;;;7.04;100.00;97329.97;15263939;19;20017;-52
2023/10/18 19:57:34;;;;;;;6.40;4.80;;;;;;;7.07;100.00;97316.25;15264355;19;20241;-50
2023/10/18 20:03:02;;;;;;;6.18;5.40;;;;;;;7.06;100.00;97303.88;15267409;19;20040;-51
2023/10/18 20:08:28;;;;;;;5.82;5.22;;;;;;;7.05;100.00;97299.50;15266308;19;20039;-48
2023/10/18 20:13:52;;;;;;;6.50;5.30;;;;;;;7.04;100.00;97289.78;15265413;19;20025;-49
2023/10/18 20:19:19;;;;;;;6.00;5.40;;;;;;;7.04;100.00;97295.16;15270642;19;20090;-50
2023/10/18 20:24:45;;;;;;;6.53;5.82;;;;;;;7.04;100.00;97288.97;15270018;19;20014;-51
2023/10/18 20:30:12;;;;;;;7.35;5.68;;;;;;;7.02;100.00;97280.25;15280107;19;20747;-55
2023/10/18 20:35:40;;;;;;;8.48;6.22;;;;;;;7.03;100.00;97277.41;15276894;19;20467;-51
2023/10/18 20:41:05;;;;;;;7.53;6.00;;;;;;;7.01;100.00;97271.38;15279821;19;20797;-49
2023/10/18 20:46:32;;;;;;;7.90;6.15;;;;;;;7.00;100.00;97256.31;15270300;19;20464;-50
2023/10/18 20:52:05;;;;;;;10.00;6.57;;;;;;;7.00;100.00;97240.25;15281834;19;20015;-50
2023/10/18 20:57:30;;;;;;;7.38;6.38;;;;;;;7.01;100.00;97235.75;15269156;19;20010;-50
2023/10/18 21:02:59;;;;;;;6.40;5.80;;;;;;;7.02;100.00;97226.72;15279776;19;20371;-53
2023/10/18 21:08:34;;;;;;;8.05;6.13;;;;;;;7.04;100.00;97219.34;15277496;19;20534;-52
2023/10/18 21:13:59;;;;;;;7.93;6.18;;;;;;;7.07;100.00;97206.44;15274944;19;20013;-50
2023/10/18 21:19:25;;;;;;;6.45;5.85;;;;;;;7.12;100.00;97180.97;15272028;19;20018;-49
2023/10/18 21:24:52;;;;;;;9.40;6.28;;;;;;;7.16;100.00;97180.50;15275554;19;20022;-51
2023/10/18 21:30:18;;;;;;;8.15;6.50;;;;;;;7.22;100.00;97163.72;15274295;19;20020;-52
2023/10/18 21:35:49;;;;;;;6.57;5.97;;;;;;;7.27;100.00;97151.69;15270816;19;20028;-51
2023/10/18 21:41:18;;;;;;;7.10;6.40;;;;;;;7.32;100.00;97136.75;15280091;19;20025;-50
2023/10/18 21:46:43;;;;;;;6.72;6.07;;;;;;;7.40;100.00;97128.69;15272506;19;20482;-49
2023/10/18 21:52:08;;;;;;;6.57;5.90;;;;;;;7.45;100.00;97120.13;15274905;19;20018;-52
2023/10/18 21:57:37;;;;;;;6.78;6.18;;;;;;;7.48;100.00;97109.06;15258973;19;20524;-48
2023/10/18 22:03:07;;;;;;;8.45;6.35;;;;;;;7.52;100.00;97098.81;15275900;19;20089;-51
2023/10/18 22:08:39;;;;;;;6.90;6.20;;;;;;;7.58;100.00;97094.63;15276845;19;20042;-52
2023/10/18 22:19:50;;;;;;;6.93;6.23;;;;;;;7.59;100.00;97078.34;15270094;19;20045;-51
2023/10/18 22:25:21;;;;;;;7.88;5.90;;;;;;;7.65;100.00;97060.72;15265796;19;20077;-52
2023/10/18 22:30:48;;;;;;;7.07;6.10;;;;;;;7.69;100.00;97051.34;15270154;19;20467;-51
2023/10/18 22:36:13;;;;;;;7.20;5.90;;;;;;;7.72;100.00;97040.25;15262063;19;20010;-50
2023/10/18 22:41:38;;;;;;;6.78;5.78;;;;;;;7.74;100.00;97027.53;15274544;19;20475;-51
2023/10/18 22:47:19;;;;;;;7.40;5.82;;;;;;;7.76;100.00;97005.88;15269289;19;20482;-50
2023/10/18 22:52:44;;;;;;;7.70;6.17;;;;;;;7.79;100.00;96998.31;15272019;19;20014;-53
2023/10/18 22:58:15;;;;;;;7.80;6.00;;;;;;;7.81;100.00;96984.75;15268693;19;20024;-49
2023/10/18 23:03:43;;;;;;;7.25;5.90;;;;;;;7.85;100.00;96976.16;15267561;19;20078;-52
2023/10/18 23:09:10;;;;;;;6.82;5.43;;;;;;;7.90;100.00;96969.41;15271701;19;20709;-53
2023/10/18 23:14:41;;;;;;;8.13;5.75;;;;;;;7.93;100.00;96951.13;15270444;19;20467;-53
2023/10/18 23:20:18;;;;;;;5.75;5.25;;;;;;;7.98;100.00;96953.28;15268298;19;20021;-55
2023/10/18 23:31:30;;;;;;;7.10;5.72;;;;;;;8.06;100.00;96958.56;15270570;19;20038;-53
2023/10/18 23:37:11;;;;;;;6.32;5.68;;;;;;;8.11;100.00;96963.38;15263540;19;20031;-53
2023/10/18 23:42:37;;;;;;;6.13;5.05;;;;;;;8.18;100.00;96962.47;15272040;19;20507;-53
2023/10/18 23:48:27;;;;;;;6.05;5.45;;;;;;;8.26;100.00;96956.19;15264461;19;20378;-50
2023/10/18 23:53:59;;;;;;;9.32;5.72;;;;;;;8.30;100.00;96952.13;15267971;19;20022;-51
2023/10/18 23:59:29;;;;;;;6.90;6.10;;;;;;;8.31;100.00;96943.06;15260246;19;20025;-50
